Terminal Aerodrome Forecast
Issued by NWS Anchorage, AK

Home | Current Version | Previous Version | Text Only | Print | Product List | Glossary On
Versions: 1 2 3 4 5 6 7 8 9 10 11 12 13 14 15 16 17 18 19 20 21
000
FTAK31 PANC 230532 AAA
TAFANC
TAF AMD
PANC 230532Z 2306/2412 17006KT P6SM VCSH SCT070 BKN130
      WS020/12030KT
     FM231000 VRB04KT P6SM VCSH BKN050
     FM231800 VRB04KT P6SM SCT050 BKN070
     FM232300 16012G20KT P6SM VCSH SCT050 BKN070
     FM241000 16018G28KT P6SM VCSH FEW050 BKN080 WS015/13050KT=

USA.gov is the U.S. government's official web portal to all federal, state and local government web resources and services.